Flight Track Log - Related Links

Times and Time Zones

All times are in EDT time to prevent confusion due to time zone crossing. See the SWA149 flight status page for this flight to view local times or setup timezone preferences in your user account.

Time Position Orientation Groundspeed Altitude Reporting Facility
EDT Latitude Longitude Course Direction KTS MPH feet Rate Location/Type
Thu 09:09:38 PM 28.4167 -81.3000 156° South 153 176 700  Level Orlando TRACON
Thu 09:10:56 PM 28.3500 -81.2667 156° South 220 253 3,600 2,455 Climbing Orlando TRACON
Thu 09:11:50 PM 28.3500 -81.2000 90° East 228 262 6,100 2,421 Climbing Orlando TRACON
Thu 09:12:50 PM 28.3500 -81.1167 90° East 281 323 8,200 2,250 Climbing Orlando TRACON
Thu 09:13:50 PM 28.3667 -81.0333 77° East 302 348 10,600 2,602 Climbing Orlando TRACON
Thu 09:16:06 PM 28.4217 -80.8033 75° East 352 405 16,700 2,816 Climbing Miami Center
Thu 09:17:06 PM 28.4769 -80.6872 62° Northeast 365 420 19,800 2,700 Climbing Miami Center
Thu 09:18:06 PM 28.5281 -80.5731 63° Northeast 387 445 22,100 2,350 Climbing Miami Center
Thu 09:19:06 PM 28.5789 -80.4639 62° Northeast 416 479 24,500 2,500 Climbing Miami Center
Thu 09:20:06 PM 28.6383 -80.3308 63° Northeast 422 486 27,100 2,050 Climbing Miami Center
Thu 09:21:06 PM 28.6847 -80.2306 62° Northeast 431 496 28,600 1,600 Climbing Miami Center
Thu 09:22:06 PM 28.7567 -80.0978 58° Northeast 431 496 30,300 1,623 Climbing Miami Center
Thu 09:23:08 PM 28.8589 -80.0061 38° Northeast 442 509 31,900 1,339 Climbing Miami Center
Thu 09:24:07 PM 28.9611 -79.9094 40° Northeast 456 525 33,000 763 Climbing Miami Center
Thu 09:25:06 PM 29.0656 -79.8031 42° Northeast 462 532 33,400 1,261 Climbing Miami Center
Thu 09:26:06 PM 29.1631 -79.7178 37° Northeast 467 537 35,500 1,934 Climbing Miami Center
Thu 09:27:07 PM 29.2608 -79.6250 40° Northeast 467 537 37,300 1,636 Climbing Miami Center
Thu 09:28:07 PM 29.3628 -79.5347 38° Northeast 461 531 38,800 1,462 Climbing Miami Center
Thu 09:29:06 PM 29.4564 -79.4394 42° Northeast 455 524 40,200 1,100 Climbing Miami Center
Thu 09:30:07 PM 29.5558 -79.3536 37° Northeast 450 518 41,000 393 Climbing Miami Center
Thu 09:31:08 PM 29.6533 -79.2603 40° Northeast 450 518 41,000  Level Miami Center
Thu 09:32:48 PM 29.8258 -79.0886 41° Northeast 453 521 41,000  Level Jacksonville Center
Thu 09:33:48 PM 29.9342 -79.0197 29° Northeast 431 496 41,000  Level Jacksonville Center
Thu 09:34:48 PM 30.0456 -78.9744 19° North 431 496 41,000  Level Jacksonville Center
Thu 09:35:48 PM 30.1653 -78.9336 16° North 437 503 41,000  Level Jacksonville Center
Thu 09:36:48 PM 30.2706 -78.8931 18° North 431 496 41,000  Level Jacksonville Center
Thu 09:37:48 PM 30.3861 -78.8497 18° North 437 503 41,000  Level Jacksonville Center
Thu 09:38:48 PM 30.5036 -78.8061 18° North 444 511 41,000  Level Jacksonville Center
Thu 09:39:48 PM 30.6214 -78.7625 18° North 437 503 41,000  Level Jacksonville Center
Thu 09:40:48 PM 30.7408 -78.7161 18° North 432 497 41,000  Level Jacksonville Center
Thu 09:41:48 PM 30.8583 -78.6725 18° North 437 503 41,000  Level Jacksonville Center
Thu 09:42:48 PM 30.9717 -78.6286 18° North 437 503 41,000  Level Jacksonville Center
Thu 09:43:48 PM 31.0911 -78.5819 18° North 437 503 41,000  Level Jacksonville Center
Thu 09:44:48 PM 31.2067 -78.5425 16° North 437 503 41,000  Level Jacksonville Center
Thu 09:45:48 PM 31.3200 -78.4983 18° North 437 503 41,000  Level Jacksonville Center
Thu 09:46:48 PM 31.4394 -78.4489 19° North 437 503 41,000 -50 Level Jacksonville Center
Thu 09:47:48 PM 31.5547 -78.4019 19° North 437 503 40,900  Descending Jacksonville Center
Thu 09:48:48 PM 31.6658 -78.3600 18° North 432 497 41,000 50 Climbing Jacksonville Center
Thu 09:49:48 PM 31.7831 -78.3128 19° North 432 497 41,000  Level Jacksonville Center
Thu 09:50:48 PM 31.8903 -78.2708 18° North 427 491 41,000  Level Jacksonville Center
Thu 09:51:48 PM 32.0053 -78.2208 20° North 427 491 41,000  Level Jacksonville Center
Thu 09:52:48 PM 32.1164 -78.1808 17° North 422 486 41,000  Level Jacksonville Center
Thu 09:53:48 PM 32.2317 -78.1333 19° North 422 486 41,000  Level Jacksonville Center
Thu 09:54:48 PM 32.3425 -78.0856 20° North 422 486 41,000  Level Jacksonville Center
Thu 09:55:48 PM 32.4558 -78.0453 17° North 422 486 41,000  Level Jacksonville Center
Thu 09:56:48 PM 32.5667 -78.0000 19° North 416 479 41,000  Level Jacksonville Center
Thu 09:57:48 PM 32.6817 -77.9517 19° North 421 484 41,000  Level Jacksonville Center
Thu 09:58:48 PM 32.7947 -77.9061 19° North 421 484 41,000  Level Jacksonville Center
Thu 09:59:48 PM 32.9075 -77.8603 19° North 421 484 41,000  Level Jacksonville Center
Thu 10:02:00 PM 33.1531 -77.7617 19° North 440 506 41,000  Level Washington Center
Thu 10:03:00 PM 33.2686 -77.7150 19° North 440 506 41,000  Level Washington Center
Thu 10:04:00 PM 33.3819 -77.6706 18° North 435 501 41,000  Level Washington Center
Thu 10:05:01 PM 33.4953 -77.6236 19° North 430 495 41,000  Level Washington Center
Thu 10:05:59 PM 33.6108 -77.5742 20° North 430 495 41,000  Level Washington Center
Thu 10:06:59 PM 33.7264 -77.5269 19° North 430 495 41,000  Level Washington Center
Thu 10:08:00 PM 33.8419 -77.4822 18° North 430 495 41,000  Level Washington Center
Thu 10:09:00 PM 33.9575 -77.4322 20° North 430 495 41,000  Level Washington Center
Thu 10:10:00 PM 34.0750 -77.3872 18° North 430 495 41,000  Level Washington Center
Thu 10:11:01 PM 34.1903 -77.3369 20° North 430 495 41,000  Level Washington Center
Thu 10:11:59 PM 34.3183 -77.2842 19° North 430 495 41,000  Level Washington Center
Thu 10:12:59 PM 34.4256 -77.2411 18° North 430 495 41,000  Level Washington Center
Thu 10:14:00 PM 34.5431 -77.1931 19° North 430 495 41,000  Level Washington Center
Thu 10:15:00 PM 34.6603 -77.1450 19° North 435 501 41,000  Level Washington Center
Thu 10:16:01 PM 34.7758 -77.0942 20° North 440 506 41,000  Level Washington Center
Thu 10:16:59 PM 34.8953 -77.0456 18° North 445 512 41,000  Level Washington Center
Thu 10:17:59 PM 35.0128 -76.9944 20° North 445 512 41,000  Level Washington Center
Thu 10:19:00 PM 35.1322 -76.9406 20° North 445 512 41,000  Level Washington Center
Thu 10:20:00 PM 35.2497 -76.8892 20° North 445 512 41,000  Level Washington Center
Thu 10:20:59 PM 35.3692 -76.8403 18° North 450 518 41,000  Level Washington Center
Thu 10:21:59 PM 35.4950 -76.7833 20° North 450 518 41,000  Level Washington Center
Thu 10:23:00 PM 35.6144 -76.7317 19° North 450 518 41,000  Level Washington Center
Thu 10:24:01 PM 35.7339 -76.6822 19° North 450 518 41,000  Level Washington Center
Thu 10:24:59 PM 35.8531 -76.6300 20° North 450 518 41,000  Level Washington Center
Thu 10:25:59 PM 35.9706 -76.5800 19° North 450 518 41,000  Level Washington Center
Thu 10:27:00 PM 36.0919 -76.5275 19° North 450 518 41,000  Level Washington Center
Thu 10:28:00 PM 36.2092 -76.4750 20° North 450 518 41,000  Level Washington Center
Thu 10:29:00 PM 36.3306 -76.4247 18° North 450 518 41,000  Level Washington Center
Thu 10:30:01 PM 36.4478 -76.3717 20° North 450 518 41,000  Level Washington Center
Thu 10:30:59 PM 36.5669 -76.3211 19° North 450 518 41,000  Level Washington Center
Thu 10:32:00 PM 36.6861 -76.2706 19° North 450 518 41,000  Level Washington Center
Thu 10:33:00 PM 36.8033 -76.2119 22° Northeast 450 518 41,000  Level Washington Center
Thu 10:34:00 PM 36.9203 -76.1608 19° North 450 518 41,000  Level Washington Center
Thu 10:34:59 PM 37.0436 -76.1122 17° North 455 524 41,000  Level Washington Center
Thu 10:35:59 PM 37.1586 -76.0608 20° North 450 518 41,000  Level Washington Center
Thu 10:37:01 PM 37.2714 -76.0069 21° North 437 503 41,000  Level Washington Center
Thu 10:38:01 PM 37.3883 -75.9553 19° North 437 503 41,000  Level Washington Center
Thu 10:38:59 PM 37.5011 -75.8825 27° Northeast 437 503 41,000  Level Washington Center
Thu 10:39:58 PM 37.6139 -75.8094 27° Northeast 437 503 41,000  Level Washington Center
Thu 10:40:59 PM 37.7247 -75.7361 28° Northeast 449 517 41,000  Level Washington Center
Thu 10:41:59 PM 37.8144 -75.6758 28° Northeast 449 517 41,000  Level Washington Center
Thu 10:43:00 PM 37.9353 -75.5969 27° Northeast 449 517 41,000  Level Washington Center
Thu 10:44:00 PM 38.0500 -75.5206 28° Northeast 454 522 41,000  Level Washington Center
Thu 10:45:01 PM 38.1625 -75.4464 27° Northeast 454 522 41,000  Level Washington Center
Thu 10:45:59 PM 38.2731 -75.3722 28° Northeast 449 517 41,000  Level Washington Center
Thu 10:47:00 PM 38.3917 -75.2844 30° Northeast 449 517 41,000  Level Washington Center
Thu 10:48:00 PM 38.4997 -75.2097 28° Northeast 449 517 41,000  Level Washington Center
Thu 10:48:58 PM 38.6100 -75.1375 27° Northeast 444 511 41,000  Level Washington Center
Thu 10:49:59 PM 38.7203 -75.0594 29° Northeast 444 511 41,000  Level Washington Center
Thu 10:51:00 PM 38.8303 -74.9867 27° Northeast 444 511 41,000  Level Washington Center
Thu 10:52:01 PM 38.9406 -74.9083 29° Northeast 444 511 41,000  Level Washington Center
Thu 10:53:00 PM 39.0483 -74.8353 28° Northeast 444 511 41,000  Level Washington Center
Thu 10:54:00 PM 39.1561 -74.7483 32° Northeast 444 511 41,000  Level Washington Center
Thu 10:55:01 PM 39.2597 -74.6589 34° Northeast 444 511 41,000  Level Washington Center
Thu 10:56:00 PM 39.3675 -74.5689 33° Northeast 456 525 41,000 -200 Level Washington Center
Thu 10:57:01 PM 39.4708 -74.4758 35° Northeast 456 525 40,600 -1,462 Descending Washington Center
Thu 10:57:59 PM 39.5761 -74.3828 34° Northeast 456 525 38,100 -2,600 Descending Washington Center
Thu 10:59:01 PM 39.6839 -74.2911 33° Northeast 458 527 35,400 -2,803 Descending New York Center
Thu 11:00:01 PM 39.7864 -74.2017 34° Northeast 464 534 32,400 -2,672 Descending New York Center
Thu 11:01:00 PM 39.8806 -74.1169 35° Northeast 459 528 30,100 -2,250 Descending New York Center
Thu 11:02:01 PM 39.9917 -74.0222 33° Northeast 459 528 27,900 -2,479 Descending New York Center
Thu 11:03:01 PM 40.1028 -73.9242 34° Northeast 470 541 25,100 -1,450 Descending New York Center
Thu 11:04:01 PM 40.2094 -73.8286 34° Northeast 470 541 25,000 -50 Descending New York Center
Thu 11:05:02 PM 40.3161 -73.7353 34° Northeast 470 541 25,000  Level New York Center
Thu 11:06:01 PM 40.4225 -73.6417 34° Northeast 470 541 25,000 -981 Level New York Center
Thu 11:08:30 PM 40.6917 -73.3925 35° Northeast 461 531 21,600 -1,636 Descending Boston Center
Thu 11:09:30 PM 40.7736 -73.3253 32° Northeast 448 516 19,300 -1,500 Descending Boston Center
Thu 11:10:30 PM 40.8722 -73.2169 40° Northeast 427 491 18,600 -650 Descending Boston Center
Thu 11:11:30 PM 40.9583 -73.1133 42° Northeast 417 480 18,000 -800 Descending Boston Center
Thu 11:12:30 PM 41.0444 -73.0097 42° Northeast 417 480 17,000 -1,000 Descending Boston Center
Thu 11:13:30 PM 41.1303 -72.9114 41° Northeast 411 473 16,000 -1,431 Descending Boston Center
Thu 11:14:19 PM 41.2056 -72.8236 41° Northeast 402 463 14,400 -2,422 Descending Boston Center
Thu 11:15:19 PM 41.2872 -72.7303 41° Northeast 387 445 11,600 -1,826 Descending Boston Center
Thu 11:16:14 PM 41.3769 -72.6944 17° North 364 419 10,900 -828 Descending Boston Center
Thu 11:17:15 PM 41.4622 -72.6561 19° North 308 354 10,000 -1,240 Descending Boston Center
Thu 11:18:15 PM 41.5458 -72.6231 16° North 302 348 8,400 -1,388 Descending Boston Center
Thu 11:19:16 PM 41.6208 -72.5928 17° North 284 327 7,200 -1,438 Descending Boston Center
Thu 11:20:16 PM 41.6917 -72.5653 16° North 270 311 5,500 -1,513 Descending Boston Center
Thu 11:21:11 PM 41.7583 -72.5319 20° North 270 311 4,300 -1,138 Descending Boston Center
Thu 11:22:12 PM 41.8336 -72.5236 North 270 311 3,300 -694 Descending Boston Center
Thu 11:23:12 PM 41.9044 -72.5350 353° North 244 281 2,900 -248 Descending Boston Center
Thu 11:24:13 PM 41.9586 -72.5572 343° North 198 228 2,800 -295 Descending Boston Center
Thu 11:25:14 PM 42.0022 -72.5742 344° North 162 186 2,300 -595 Descending Boston Center
Thu 11:26:14 PM 41.9939 -72.6161 255° West 130 150 1,600 -694 Descending Boston Center
Thu 11:27:15 PM 41.9689 -72.6467 222° Southwest 124 143 900 -689 Descending Boston Center

Login

Don't have an account? Register now (free) for customized features, flight alerts, and more!